Time;durP1;ratioP1;P1;durP2;ratioP2;P2;SDS_P1;SDS_P2;PMS_P1;PMS_P2;Temp;Humidity;BMP_temperature;BMP_pressure;BME280_temperature;BME280_humidity;BME280_pressure;Samples;Min_cycle;Max_cycle;Signal;HPM_P1;HPM_P2
2023/12/01 00:00:46;;;;;;;18.87;13.60;;;-2.00;99.90;;;;;;5088346;28;20296;-64
2023/12/01 00:03:13;;;;;;;23.00;14.87;;;-1.90;99.90;;;;;;5085421;28;20609;-64
2023/12/01 00:05:42;;;;;;;19.10;13.93;;;-2.00;99.90;;;;;;5086946;28;20751;-64
2023/12/01 00:08:08;;;;;;;18.33;13.63;;;-2.00;99.90;;;;;;5084423;28;20327;-64
2023/12/01 00:10:35;;;;;;;21.70;14.00;;;-1.90;99.90;;;;;;5087271;28;20206;-64
2023/12/01 00:13:02;;;;;;;18.60;14.53;;;-1.90;99.90;;;;;;5081941;28;20206;-64
2023/12/01 00:15:29;;;;;;;21.97;14.20;;;-1.90;99.90;;;;;;5082953;28;20714;-64
2023/12/01 00:17:56;;;;;;;17.70;13.87;;;-2.00;99.90;;;;;;5086984;28;20241;-64
2023/12/01 00:20:23;;;;;;;19.23;13.87;;;-2.00;99.90;;;;;;5079141;28;20316;-64
2023/12/01 00:22:53;;;;;;;18.13;13.00;;;-2.00;99.90;;;;;;5082195;28;20210;-64
2023/12/01 00:25:20;;;;;;;18.53;12.83;;;-2.00;99.90;;;;;;5083854;28;20216;-64
2023/12/01 00:27:46;;;;;;;19.37;12.60;;;-2.00;99.90;;;;;;5081336;28;20288;-64
2023/12/01 00:30:13;;;;;;;18.23;12.50;;;-1.90;99.90;;;;;;5089568;28;20295;-64
2023/12/01 00:32:41;;;;;;;17.10;12.70;;;-1.90;99.90;;;;;;5082012;28;20287;-64
2023/12/01 00:35:08;;;;;;;18.27;11.93;;;-1.80;99.90;;;;;;5084023;28;20297;-64
2023/12/01 00:37:35;;;;;;;16.60;12.07;;;-1.80;99.90;;;;;;5086585;28;20658;-64
2023/12/01 00:40:06;;;;;;;15.97;11.23;;;-1.80;99.90;;;;;;5087165;28;20290;-64
2023/12/01 00:42:33;;;;;;;14.87;11.00;;;-1.80;99.90;;;;;;5086761;28;20203;-64
2023/12/01 00:45:01;;;;;;;15.73;11.83;;;-1.80;99.90;;;;;;5086960;28;20258;-64
2023/12/01 00:47:27;;;;;;;16.17;11.37;;;-1.70;99.90;;;;;;5084151;28;20231;-64
2023/12/01 00:49:54;;;;;;;13.87;10.80;;;-1.70;99.90;;;;;;5081127;28;20241;-64
2023/12/01 00:52:21;;;;;;;13.03;9.93;;;-1.70;99.90;;;;;;5086279;28;20206;-64
2023/12/01 00:54:48;;;;;;;14.93;11.53;;;-1.80;99.90;;;;;;5086429;28;21168;-64
2023/12/01 00:57:16;;;;;;;15.20;10.90;;;-1.80;99.90;;;;;;5088622;28;20213;-64
2023/12/01 00:59:43;;;;;;;14.03;10.57;;;-1.80;99.90;;;;;;5087918;28;20295;-64
2023/12/01 01:02:10;;;;;;;17.87;11.13;;;-1.80;99.90;;;;;;5082377;28;20293;-64
2023/12/01 01:04:37;;;;;;;15.80;11.03;;;-1.80;99.90;;;;;;5087390;28;20208;-64
2023/12/01 01:07:04;;;;;;;14.47;10.40;;;-1.80;99.90;;;;;;5079976;28;20226;-64
2023/12/01 01:09:31;;;;;;;13.90;10.27;;;-1.70;99.90;;;;;;5085757;28;20788;-64
2023/12/01 01:11:58;;;;;;;13.10;10.10;;;-1.80;99.90;;;;;;5082468;28;20736;-64
2023/12/01 01:14:26;;;;;;;13.27;10.10;;;-1.80;99.90;;;;;;5078452;28;20199;-64
2023/12/01 01:16:53;;;;;;;14.27;10.17;;;-1.80;99.90;;;;;;5090153;28;20203;-64
2023/12/01 01:19:20;;;;;;;14.13;10.70;;;-1.70;99.90;;;;;;5090748;28;20201;-64
2023/12/01 01:21:48;;;;;;;12.30;9.10;;;-1.70;99.90;;;;;;5081581;28;20233;-63
2023/12/01 01:24:15;;;;;;;13.60;10.00;;;-1.70;99.90;;;;;;5090468;28;20208;-64
2023/12/01 01:26:42;;;;;;;12.63;9.23;;;-1.70;99.90;;;;;;5078828;28;20316;-64
2023/12/01 01:29:08;;;;;;;11.90;9.50;;;-1.70;99.90;;;;;;5076386;28;20264;-64
2023/12/01 01:31:37;;;;;;;10.83;9.20;;;-1.60;99.90;;;;;;5084199;28;20297;-64
2023/12/01 01:34:04;;;;;;;10.93;8.87;;;-1.60;99.90;;;;;;5090434;28;20304;-64
2023/12/01 01:36:31;;;;;;;11.07;9.00;;;-1.60;99.90;;;;;;5090241;28;20202;-65
2023/12/01 01:38:59;;;;;;;11.10;8.20;;;-1.60;99.90;;;;;;5090100;28;20217;-65
2023/12/01 01:41:26;;;;;;;9.50;8.47;;;-1.60;99.90;;;;;;5089643;28;20672;-64
2023/12/01 01:43:53;;;;;;;10.83;9.37;;;-1.60;99.90;;;;;;5088443;28;20213;-64
2023/12/01 01:46:20;;;;;;;11.37;9.27;;;-1.60;99.90;;;;;;5089837;28;20275;-64
2023/12/01 01:48:48;;;;;;;10.30;8.70;;;-1.60;99.90;;;;;;5090406;28;21019;-64
2023/12/01 01:51:15;;;;;;;10.43;8.50;;;-1.60;99.90;;;;;;5090584;28;20264;-64
2023/12/01 01:53:42;;;;;;;10.17;8.63;;;-1.60;99.90;;;;;;5090146;28;20297;-64
2023/12/01 01:56:12;;;;;;;11.70;8.67;;;-1.70;99.90;;;;;;5090869;28;20809;-64
2023/12/01 01:58:39;;;;;;;12.63;8.57;;;-1.60;99.90;;;;;;5090554;28;21053;-64
2023/12/01 02:01:07;;;;;;;14.17;8.63;;;-1.70;99.90;;;;;;5089689;28;20304;-65
2023/12/01 02:03:34;;;;;;;10.87;8.40;;;-1.70;99.90;;;;;;5097856;28;20203;-64
2023/12/01 02:06:06;;;;;;;10.40;8.07;;;-1.70;99.90;;;;;;5100137;28;20623;-64
2023/12/01 02:08:34;;;;;;;9.73;7.67;;;-1.80;99.90;;;;;;5098064;28;20237;-64
2023/12/01 02:11:01;;;;;;;9.20;8.10;;;-1.80;99.90;;;;;;5101229;28;20206;-64
2023/12/01 02:13:29;;;;;;;10.63;8.63;;;-1.80;99.90;;;;;;5099112;28;20293;-64
2023/12/01 02:15:56;;;;;;;10.97;8.43;;;-1.80;99.90;;;;;;5098737;28;20281;-64
2023/12/01 02:18:24;;;;;;;11.60;8.70;;;-1.90;99.90;;;;;;5099694;28;20202;-65
2023/12/01 02:20:51;;;;;;;10.83;8.07;;;-1.90;99.90;;;;;;5100903;28;20696;-64
2023/12/01 02:23:20;;;;;;;8.90;7.67;;;-2.00;99.90;;;;;;5098510;28;20212;-64
2023/12/01 02:25:47;;;;;;;9.83;8.00;;;-2.00;99.90;;;;;;5091896;28;20234;-64
2023/12/01 02:28:15;;;;;;;10.07;7.97;;;-2.00;99.90;;;;;;5090172;28;20225;-64
2023/12/01 02:30:43;;;;;;;10.80;8.03;;;-2.10;99.90;;;;;;5089298;28;20308;-64
2023/12/01 02:33:16;;;;;;;11.30;8.17;;;-2.10;99.90;;;;;;5089392;28;20213;-64
2023/12/01 02:35:46;;;;;;;9.40;7.87;;;-2.10;99.90;;;;;;5089227;28;20212;-65
2023/12/01 02:38:13;;;;;;;11.17;8.30;;;-2.20;99.90;;;;;;5089213;28;20226;-65
2023/12/01 02:40:43;;;;;;;8.87;7.63;;;-2.20;99.90;;;;;;5089480;28;21253;-65
2023/12/01 02:43:10;;;;;;;11.40;8.40;;;-2.20;99.90;;;;;;5089295;28;20352;-64
2023/12/01 02:45:37;;;;;;;8.80;7.70;;;-2.30;99.90;;;;;;5088906;28;20922;-64
2023/12/01 02:48:05;;;;;;;9.77;7.90;;;-2.30;99.90;;;;;;5089069;28;20332;-64
2023/12/01 02:50:32;;;;;;;8.33;7.37;;;-2.30;99.90;;;;;;5089424;28;20638;-65
2023/12/01 02:52:59;;;;;;;10.30;7.93;;;-2.40;99.90;;;;;;5079449;28;20249;-64
2023/12/01 02:55:26;;;;;;;9.20;7.47;;;-2.50;99.90;;;;;;5069293;28;20644;-65
2023/12/01 02:57:54;;;;;;;8.87;7.43;;;-2.60;99.90;;;;;;5069190;28;20284;-65
2023/12/01 03:00:22;;;;;;;10.07;8.20;;;-2.60;99.90;;;;;;5073854;28;20237;-65
2023/12/01 03:02:50;;;;;;;10.20;7.07;;;-2.70;99.90;;;;;;5079202;28;20722;-65
2023/12/01 03:05:17;;;;;;;9.93;7.53;;;-2.70;99.90;;;;;;5085040;28;20219;-65
2023/12/01 03:07:44;;;;;;;8.63;7.50;;;-2.70;99.90;;;;;;5088422;28;20246;-65
2023/12/01 03:10:12;;;;;;;8.77;7.47;;;-2.70;99.90;;;;;;5076879;28;20639;-65
2023/12/01 03:12:40;;;;;;;9.30;7.97;;;-2.70;99.90;;;;;;5068614;28;20305;-65
2023/12/01 03:15:10;;;;;;;9.43;7.57;;;-2.70;99.90;;;;;;5073634;28;20282;-64
2023/12/01 03:17:37;;;;;;;9.67;7.17;;;-2.70;99.90;;;;;;5088939;28;20235;-64
2023/12/01 03:20:10;;;;;;;10.83;7.37;;;-2.70;99.90;;;;;;5088668;28;20698;-64
2023/12/01 03:22:38;;;;;;;8.70;7.30;;;-2.70;99.90;;;;;;5088685;28;20291;-65
2023/12/01 03:25:09;;;;;;;9.10;7.20;;;-2.70;99.90;;;;;;5088544;28;20296;-64
2023/12/01 03:27:39;;;;;;;8.13;7.33;;;-2.70;99.90;;;;;;5088291;28;20659;-64
2023/12/01 03:30:14;;;;;;;7.70;6.83;;;-2.70;99.90;;;;;;5088615;28;20208;-64
2023/12/01 03:32:46;;;;;;;8.90;6.57;;;-2.70;99.90;;;;;;5087962;28;20204;-64
2023/12/01 03:35:14;;;;;;;7.73;6.60;;;-2.70;99.90;;;;;;5088364;28;20210;-65
2023/12/01 03:37:41;;;;;;;9.03;6.63;;;-2.70;99.90;;;;;;5075331;28;20585;-64
2023/12/01 03:40:12;;;;;;;8.67;6.87;;;-2.80;99.90;;;;;;5088361;28;20296;-65
2023/12/01 03:42:42;;;;;;;9.57;6.50;;;-2.90;99.90;;;;;;5087601;28;20211;-65
2023/12/01 03:45:14;;;;;;;10.03;7.00;;;-3.00;99.90;;;;;;5088240;28;20305;-65
2023/12/01 03:47:42;;;;;;;8.90;6.30;;;-3.10;99.90;;;;;;5088285;28;20312;-65
2023/12/01 03:50:13;;;;;;;7.63;6.83;;;-3.20;99.90;;;;;;5087731;28;20210;-65
2023/12/01 03:52:42;;;;;;;7.83;6.43;;;-3.30;99.90;;;;;;5087008;28;20239;-65
2023/12/01 03:55:10;;;;;;;8.40;6.60;;;-3.30;99.90;;;;;;5067543;28;20210;-65
2023/12/01 03:57:37;;;;;;;9.50;7.03;;;-3.20;99.90;;;;;;5080994;28;20631;-65
2023/12/01 04:00:08;;;;;;;8.40;6.83;;;-3.20;99.90;;;;;;5088063;28;20253;-65
2023/12/01 04:02:40;;;;;;;8.03;6.70;;;-3.30;99.90;;;;;;5088072;28;20195;-65
2023/12/01 04:05:09;;;;;;;7.73;6.70;;;-3.30;99.90;;;;;;5087853;28;20228;-65
2023/12/01 04:07:38;;;;;;;10.00;7.20;;;-3.30;99.90;;;;;;5086980;28;20307;-65
2023/12/01 04:10:10;;;;;;;10.33;7.17;;;-3.20;99.90;;;;;;5086141;28;20648;-65
2023/12/01 04:12:44;;;;;;;8.73;7.17;;;-3.20;99.90;;;;;;5070032;28;20247;-65
2023/12/01 04:15:12;;;;;;;8.73;6.77;;;-3.20;99.90;;;;;;5087419;28;20215;-65
2023/12/01 04:17:42;;;;;;;7.77;6.60;;;-3.30;99.90;;;;;;5087337;28;20221;-65
2023/12/01 04:20:20;;;;;;;11.57;7.50;;;-3.20;99.90;;;;;;5088001;28;20211;-65
2023/12/01 04:22:49;;;;;;;10.03;6.93;;;-3.20;99.90;;;;;;5094912;28;20204;-65
2023/12/01 04:25:16;;;;;;;8.13;6.70;;;-3.20;99.90;;;;;;5108058;28;20306;-65
2023/12/01 04:27:43;;;;;;;9.70;7.27;;;-3.20;99.90;;;;;;5086807;28;20639;-65
2023/12/01 04:30:14;;;;;;;10.23;7.20;;;-3.20;99.90;;;;;;5066976;28;20310;-64
2023/12/01 04:32:43;;;;;;;8.50;7.03;;;-3.20;99.90;;;;;;5066954;28;20204;-65
2023/12/01 04:35:10;;;;;;;9.57;7.17;;;-3.10;99.90;;;;;;5066930;28;20253;-65
2023/12/01 04:37:37;;;;;;;9.37;7.07;;;-3.10;99.90;;;;;;5069443;28;20716;-65
2023/12/01 04:40:13;;;;;;;10.00;7.47;;;-3.20;99.90;;;;;;5087125;28;20257;-65
2023/12/01 04:42:40;;;;;;;10.33;7.10;;;-3.20;99.90;;;;;;5086884;28;20289;-65
2023/12/01 04:45:11;;;;;;;9.70;7.43;;;-3.10;99.90;;;;;;5087283;28;20202;-65
2023/12/01 04:47:39;;;;;;;8.80;6.20;;;-3.10;99.90;;;;;;5086512;28;20252;-65
2023/12/01 04:50:12;;;;;;;10.67;6.83;;;-3.10;99.90;;;;;;5086917;28;20295;-65
2023/12/01 04:52:41;;;;;;;10.07;7.07;;;-3.10;99.90;;;;;;5086653;28;20201;-65
2023/12/01 04:55:11;;;;;;;8.43;6.87;;;-3.10;99.90;;;;;;5086763;28;20206;-65
2023/12/01 04:57:38;;;;;;;8.87;6.80;;;-3.20;99.90;;;;;;5086792;28;20792;-65
2023/12/01 05:00:18;;;;;;;9.07;7.20;;;-3.20;99.90;;;;;;5086929;28;20201;-65
2023/12/01 05:02:47;;;;;;;11.50;7.53;;;-3.30;99.90;;;;;;5086200;28;20192;-65
2023/12/01 05:05:16;;;;;;;9.83;7.27;;;-3.30;99.90;;;;;;5086633;28;20680;-65
2023/12/01 05:07:43;;;;;;;9.83;7.53;;;-3.30;99.90;;;;;;5086390;28;20732;-65
2023/12/01 05:10:15;;;;;;;8.33;6.83;;;-3.40;99.90;;;;;;5086965;28;20188;-65
2023/12/01 05:12:49;;;;;;;8.33;6.80;;;-3.50;99.90;;;;;;5086701;28;20306;-65
2023/12/01 05:15:16;;;;;;;9.50;7.00;;;-3.50;99.90;;;;;;5086775;28;20282;-65
2023/12/01 05:17:47;;;;;;;10.40;7.03;;;-3.50;99.90;;;;;;5086367;28;20298;-65
2023/12/01 05:20:17;;;;;;;9.97;7.20;;;-3.50;99.90;;;;;;5086195;28;20207;-65
2023/12/01 05:22:45;;;;;;;8.63;6.60;;;-3.50;99.90;;;;;;5085467;28;20205;-66
2023/12/01 05:25:13;;;;;;;9.67;7.40;;;-3.50;99.90;;;;;;5094394;28;20680;-64
2023/12/01 05:27:43;;;;;;;8.77;6.90;;;-3.70;99.90;;;;;;5095154;28;20200;-64
2023/12/01 05:30:12;;;;;;;9.60;6.80;;;-3.70;99.90;;;;;;5098059;28;20279;-64
2023/12/01 05:32:40;;;;;;;9.63;6.63;;;-3.70;99.90;;;;;;5093797;28;20232;-65
2023/12/01 05:35:10;;;;;;;8.37;6.83;;;-3.70;99.90;;;;;;5073580;28;20389;-64
2023/12/01 05:37:40;;;;;;;10.93;7.07;;;-3.70;99.90;;;;;;5080666;28;20223;-65
2023/12/01 05:40:09;;;;;;;8.80;7.00;;;-3.70;99.90;;;;;;5066363;28;20693;-65
2023/12/01 05:42:36;;;;;;;7.83;6.80;;;-3.60;99.90;;;;;;5066330;28;20213;-63
2023/12/01 05:45:05;;;;;;;9.37;6.60;;;-3.60;99.90;;;;;;5069799;28;20669;-64
2023/12/01 05:47:32;;;;;;;6.80;6.07;;;-3.70;99.90;;;;;;5067647;28;20722;-64
2023/12/01 05:49:59;;;;;;;10.73;6.77;;;-3.60;99.90;;;;;;5078959;28;20311;-63
2023/12/01 05:52:26;;;;;;;9.13;6.40;;;-3.60;99.90;;;;;;5086118;28;20293;-63
2023/12/01 05:54:54;;;;;;;8.87;6.40;;;-3.60;99.90;;;;;;5086689;28;20294;-64
2023/12/01 05:57:21;;;;;;;9.37;6.50;;;-3.60;99.90;;;;;;5086396;28;20741;-64
2023/12/01 05:59:49;;;;;;;8.43;6.67;;;-3.80;99.90;;;;;;5069220;28;20213;-63
2023/12/01 06:02:16;;;;;;;8.80;6.87;;;-3.80;99.90;;;;;;5083141;28;20191;-63
2023/12/01 06:04:43;;;;;;;8.07;6.17;;;-3.80;99.90;;;;;;5089754;28;20203;-63
2023/12/01 06:07:11;;;;;;;8.90;6.20;;;-3.70;99.90;;;;;;5090075;28;20277;-63
2023/12/01 06:09:38;;;;;;;6.60;5.83;;;-3.80;99.90;;;;;;5088978;28;20242;-63
2023/12/01 06:12:06;;;;;;;6.87;6.20;;;-3.90;99.90;;;;;;5089955;28;20211;-63
2023/12/01 06:14:33;;;;;;;9.10;6.23;;;-4.00;99.90;;;;;;5089737;28;20291;-63
2023/12/01 06:17:00;;;;;;;9.20;6.10;;;-4.00;99.90;;;;;;5090052;28;20215;-63
2023/12/01 06:19:27;;;;;;;9.07;6.67;;;-4.00;99.90;;;;;;5089757;28;20214;-63
2023/12/01 06:21:57;;;;;;;7.07;6.10;;;-4.00;99.90;;;;;;5089603;28;20627;-64
2023/12/01 06:24:25;;;;;;;7.23;6.10;;;-4.00;99.90;;;;;;5089589;28;20707;-63
2023/12/01 06:26:53;;;;;;;7.47;5.97;;;-4.00;99.90;;;;;;5089321;28;20203;-63
2023/12/01 06:29:21;;;;;;;7.37;6.20;;;-4.00;99.90;;;;;;5078824;28;20319;-63
2023/12/01 06:31:48;;;;;;;8.10;6.20;;;-4.10;99.90;;;;;;5089496;28;20294;-64
2023/12/01 06:34:15;;;;;;;9.37;7.37;;;-4.10;99.90;;;;;;5087405;28;20202;-63
2023/12/01 06:36:42;;;;;;;7.30;5.97;;;-4.20;99.90;;;;;;5068756;28;20691;-63
2023/12/01 06:39:10;;;;;;;10.57;7.17;;;-4.20;99.90;;;;;;5069263;28;20678;-63
2023/12/01 06:41:38;;;;;;;7.53;5.97;;;-4.10;99.90;;;;;;5069085;28;20218;-63
2023/12/01 06:44:06;;;;;;;8.43;6.00;;;-4.20;99.90;;;;;;5087560;28;20615;-63
2023/12/01 06:46:34;;;;;;;6.10;5.50;;;-4.20;99.90;;;;;;5089260;28;20727;-63
2023/12/01 06:49:01;;;;;;;8.70;6.10;;;-4.00;99.90;;;;;;5089124;28;20323;-63
2023/12/01 06:51:28;;;;;;;8.27;6.57;;;-3.90;99.90;;;;;;5088338;28;20203;-63
2023/12/01 06:53:56;;;;;;;8.17;6.37;;;-3.90;99.90;;;;;;5088667;28;20292;-63
2023/12/01 06:56:23;;;;;;;7.77;6.23;;;-3.80;99.90;;;;;;5088050;28;20208;-63
2023/12/01 06:58:50;;;;;;;7.37;6.50;;;-3.80;99.90;;;;;;5090574;28;20636;-63
2023/12/01 07:01:19;;;;;;;9.40;6.43;;;-3.80;99.90;;;;;;5103187;28;20205;-63
2023/12/01 07:03:47;;;;;;;8.93;5.83;;;-3.90;99.90;;;;;;5109536;28;20218;-63
2023/12/01 07:06:15;;;;;;;8.27;6.47;;;-4.10;99.90;;;;;;5107621;28;20305;-63
2023/12/01 07:08:42;;;;;;;7.07;6.33;;;-4.10;99.90;;;;;;5068019;28;20288;-63
2023/12/01 07:11:09;;;;;;;6.87;5.60;;;-4.20;99.90;;;;;;5068512;28;20295;-63
2023/12/01 07:13:36;;;;;;;8.27;6.00;;;-4.20;99.90;;;;;;5068496;28;20236;-63
2023/12/01 07:16:09;;;;;;;7.80;5.97;;;-4.20;99.90;;;;;;5081080;28;20664;-63
2023/12/01 07:18:38;;;;;;;6.40;5.57;;;-4.30;99.90;;;;;;5088286;28;20209;-63
2023/12/01 07:21:07;;;;;;;6.67;5.97;;;-4.20;99.90;;;;;;5088524;28;20218;-63
2023/12/01 07:23:35;;;;;;;8.20;5.70;;;-4.20;99.90;;;;;;5087885;28;20204;-63
2023/12/01 07:26:02;;;;;;;7.97;5.63;;;-4.10;99.90;;;;;;5088140;28;20214;-63
2023/12/01 07:28:29;;;;;;;6.63;5.20;;;-4.20;99.90;;;;;;5068396;28;20239;-63
2023/12/01 07:30:56;;;;;;;7.70;5.77;;;-4.20;99.90;;;;;;5068338;28;20199;-63
2023/12/01 07:33:23;;;;;;;7.60;5.77;;;-4.30;99.90;;;;;;5068451;28;20204;-63
2023/12/01 07:35:49;;;;;;;6.03;5.47;;;-4.20;99.90;;;;;;5068092;28;20298;-63
2023/12/01 07:38:18;;;;;;;6.30;4.87;;;-4.30;99.90;;;;;;5067849;28;20212;-63
2023/12/01 07:40:46;;;;;;;6.70;5.37;;;-4.30;99.90;;;;;;5068815;28;20291;-64
2023/12/01 07:43:13;;;;;;;7.30;5.23;;;-4.30;99.90;;;;;;5086651;28;20206;-65
2023/12/01 07:45:39;;;;;;;6.37;5.33;;;-4.40;99.90;;;;;;5088514;28;20245;-64
2023/12/01 07:48:09;;;;;;;6.40;5.17;;;-4.40;99.90;;;;;;5087965;28;20203;-64
2023/12/01 07:50:36;;;;;;;6.37;5.40;;;-4.40;99.90;;;;;;5088081;28;20266;-65
2023/12/01 07:53:04;;;;;;;8.10;5.60;;;-4.30;99.90;;;;;;5090263;28;20294;-64
2023/12/01 07:55:33;;;;;;;5.53;4.87;;;-4.30;99.90;;;;;;5083360;28;20218;-64
2023/12/01 07:57:59;;;;;;;8.03;5.90;;;-4.20;99.90;;;;;;5085967;28;20208;-64
2023/12/01 08:00:27;;;;;;;6.97;5.37;;;-4.20;99.90;;;;;;5087542;28;20710;-64
2023/12/01 08:02:55;;;;;;;7.20;5.23;;;-4.20;99.90;;;;;;5087649;28;20934;-64
2023/12/01 08:05:22;;;;;;;6.83;5.60;;;-4.10;99.90;;;;;;5086332;28;20238;-66
2023/12/01 08:07:52;;;;;;;7.10;5.37;;;-4.00;99.90;;;;;;5084434;28;20603;-64
2023/12/01 08:10:19;;;;;;;6.27;5.30;;;-4.10;99.90;;;;;;5073723;28;20780;-64
2023/12/01 08:12:48;;;;;;;7.10;5.57;;;-4.00;99.90;;;;;;5087901;28;20244;-65
2023/12/01 08:15:15;;;;;;;6.50;5.13;;;-4.00;99.90;;;;;;5087545;28;20282;-65
2023/12/01 08:17:44;;;;;;;8.40;5.93;;;-4.00;99.90;;;;;;5070166;28;20295;-65
2023/12/01 08:20:12;;;;;;;6.03;5.37;;;-4.00;99.90;;;;;;5067619;28;20254;-64
2023/12/01 08:22:39;;;;;;;9.33;6.20;;;-3.90;99.90;;;;;;5072974;28;20294;-65
2023/12/01 08:25:07;;;;;;;7.97;5.23;;;-3.80;99.90;;;;;;5087804;28;20207;-65
2023/12/01 08:27:34;;;;;;;7.00;6.00;;;-3.80;99.90;;;;;;5087204;28;20203;-65
2023/12/01 08:30:03;;;;;;;7.80;6.10;;;-3.70;99.90;;;;;;5087506;28;20802;-65
2023/12/01 08:32:30;;;;;;;7.27;5.60;;;-3.70;99.90;;;;;;5082589;28;20286;-65
2023/12/01 08:34:57;;;;;;;6.77;5.67;;;-3.60;99.90;;;;;;5086415;28;20241;-66
2023/12/01 08:37:24;;;;;;;9.07;6.13;;;-3.50;99.90;;;;;;5086882;28;20252;-65
2023/12/01 08:39:51;;;;;;;9.13;6.63;;;-3.30;99.90;;;;;;5087368;28;20210;-66
2023/12/01 08:42:19;;;;;;;7.70;6.20;;;-3.20;99.90;;;;;;5086899;28;20205;-65
2023/12/01 08:44:46;;;;;;;8.90;6.17;;;-3.20;99.90;;;;;;5087195;28;20235;-65
2023/12/01 08:47:19;;;;;;;8.97;5.73;;;-3.40;99.90;;;;;;5085520;28;20299;-65
2023/12/01 08:49:49;;;;;;;8.13;5.70;;;-3.50;99.90;;;;;;5077953;28;21053;-65
2023/12/01 08:52:16;;;;;;;8.33;6.07;;;-3.40;99.90;;;;;;5086829;28;20696;-65
2023/12/01 08:54:43;;;;;;;8.07;5.70;;;-3.40;99.90;;;;;;5087297;28;20209;-65
2023/12/01 08:57:10;;;;;;;6.13;5.37;;;-3.40;99.90;;;;;;5087191;28;20618;-65
2023/12/01 08:59:37;;;;;;;7.33;5.73;;;-3.50;99.90;;;;;;5086813;28;20251;-65
2023/12/01 09:02:05;;;;;;;7.67;6.23;;;-3.40;99.90;;;;;;5087296;28;20261;-65
2023/12/01 09:04:33;;;;;;;7.43;5.90;;;-3.60;99.90;;;;;;5079126;28;20213;-64
2023/12/01 09:07:00;;;;;;;6.50;5.83;;;-3.60;99.90;;;;;;5066470;28;20250;-65
2023/12/01 09:09:27;;;;;;;8.53;6.20;;;-3.60;99.90;;;;;;5084539;28;20712;-65
2023/12/01 09:11:54;;;;;;;9.30;6.90;;;-3.60;99.90;;;;;;5086583;28;20206;-67
2023/12/01 09:14:21;;;;;;;8.33;6.63;;;-3.60;99.90;;;;;;5087094;28;20208;-64
2023/12/01 09:16:48;;;;;;;8.70;6.43;;;-3.60;99.90;;;;;;5086458;28;20683;-65
2023/12/01 09:19:15;;;;;;;6.87;5.90;;;-3.50;99.90;;;;;;5081376;28;20642;-64
2023/12/01 09:21:43;;;;;;;9.97;6.97;;;-3.40;99.90;;;;;;5066386;28;20787;-64
2023/12/01 09:24:10;;;;;;;9.10;6.10;;;-3.30;99.90;;;;;;5084485;28;20307;-64
2023/12/01 09:26:37;;;;;;;9.57;6.07;;;-3.10;99.90;;;;;;5086456;28;20270;-64
2023/12/01 09:29:04;;;;;;;9.37;6.87;;;-2.80;99.90;;;;;;5086880;28;20652;-64
2023/12/01 09:31:31;;;;;;;8.87;6.90;;;-2.60;99.90;;;;;;5086880;28;20223;-64
2023/12/01 09:33:58;;;;;;;8.30;6.70;;;-2.50;99.90;;;;;;5085980;28;20282;-64
2023/12/01 09:36:26;;;;;;;7.77;6.23;;;-2.60;99.90;;;;;;5087008;28;20310;-63
2023/12/01 09:38:57;;;;;;;7.17;5.83;;;-2.70;99.90;;;;;;5089678;28;20210;-63
2023/12/01 09:41:24;;;;;;;7.63;6.83;;;-2.60;99.90;;;;;;5090584;28;20200;-63
2023/12/01 09:43:51;;;;;;;7.30;6.17;;;-2.60;99.90;;;;;;5090608;28;20307;-63
2023/12/01 09:46:18;;;;;;;7.03;6.33;;;-2.50;99.90;;;;;;5090360;28;20679;-63
2023/12/01 09:48:47;;;;;;;6.83;6.13;;;-2.50;99.90;;;;;;5072378;28;20294;-63
2023/12/01 09:51:14;;;;;;;7.27;6.37;;;-2.40;99.90;;;;;;5068912;28;20244;-63
2023/12/01 09:53:41;;;;;;;8.57;6.60;;;-2.40;99.90;;;;;;5083425;28;20293;-63
2023/12/01 09:56:11;;;;;;;7.67;6.43;;;-2.20;99.90;;;;;;5088275;28;20217;-63
2023/12/01 09:58:38;;;;;;;8.60;6.33;;;-2.00;99.90;;;;;;5088184;28;20217;-63
2023/12/01 10:01:05;;;;;;;7.10;6.03;;;-1.90;99.90;;;;;;5088076;28;20286;-63
2023/12/01 10:03:32;;;;;;;7.07;6.37;;;-1.80;99.90;;;;;;5088290;28;20208;-63
2023/12/01 10:05:59;;;;;;;10.77;6.43;;;-1.70;99.90;;;;;;5088273;28;20242;-63
2023/12/01 10:08:27;;;;;;;8.47;6.90;;;-1.70;99.90;;;;;;5087811;28;20320;-63
2023/12/01 10:10:54;;;;;;;8.03;7.00;;;-1.70;99.90;;;;;;5080312;28;20238;-64
2023/12/01 10:13:22;;;;;;;8.93;6.77;;;-1.70;99.90;;;;;;5068056;28;20235;-64
2023/12/01 10:15:49;;;;;;;9.33;7.27;;;-1.80;99.90;;;;;;5077840;28;20322;-63
2023/12/01 10:18:19;;;;;;;8.70;6.80;;;-1.60;99.90;;;;;;5088008;28;20673;-63
2023/12/01 10:20:58;;;;;;;7.93;6.30;;;-1.50;99.90;;;;;;5087634;28;20215;-63
2023/12/01 10:23:27;;;;;;;7.87;6.37;;;-1.30;99.90;;;;;;5101329;28;20217;-63
2023/12/01 10:25:54;;;;;;;11.07;7.37;;;-1.20;99.90;;;;;;5108269;28;20240;-63
2023/12/01 10:28:26;;;;;;;7.97;7.03;;;-1.30;99.90;;;;;;5068581;28;20214;-63
2023/12/01 10:30:56;;;;;;;9.17;7.20;;;-1.20;99.90;;;;;;5077050;28;20772;-63
2023/12/01 10:33:23;;;;;;;9.30;7.37;;;-1.10;99.90;;;;;;5088717;28;20210;-63
2023/12/01 10:36:01;;;;;;;9.47;7.30;;;-1.10;99.90;;;;;;5088335;28;20317;-63
2023/12/01 10:38:28;;;;;;;8.07;7.27;;;-0.90;99.90;;;;;;5088206;28;20211;-63
2023/12/01 10:40:56;;;;;;;10.50;7.93;;;-0.90;99.90;;;;;;5087809;28;20230;-64
2023/12/01 10:43:26;;;;;;;9.63;6.80;;;-0.90;99.90;;;;;;5087316;28;20249;-64
2023/12/01 10:45:53;;;;;;;8.60;6.90;;;-0.90;99.90;;;;;;5087605;28;20203;-63
2023/12/01 10:48:22;;;;;;;8.10;7.20;;;-0.80;99.90;;;;;;5087931;28;20198;-63
2023/12/01 10:50:52;;;;;;;9.17;7.03;;;-0.70;99.90;;;;;;5087825;28;20230;-63
2023/12/01 10:53:19;;;;;;;8.80;7.40;;;-0.60;99.90;;;;;;5087826;28;20664;-66
2023/12/01 10:55:48;;;;;;;7.73;6.93;;;-0.60;99.90;;;;;;5088656;28;20282;-63
2023/12/01 10:58:21;;;;;;;7.70;6.50;;;-0.60;99.90;;;;;;5076072;28;20215;-63
2023/12/01 11:00:52;;;;;;;10.57;7.33;;;-0.50;99.90;;;;;;5092911;28;20202;-63
2023/12/01 11:03:20;;;;;;;10.77;7.00;;;-0.50;99.90;;;;;;5091436;28;20230;-63
2023/12/01 11:05:51;;;;;;;7.43;6.63;;;-0.40;99.90;;;;;;5103845;28;20210;-63
2023/12/01 11:08:28;;;;;;;9.70;7.60;;;-0.30;99.90;;;;;;5108883;28;20328;-63
2023/12/01 11:11:04;;;;;;;9.03;6.47;;;-0.20;99.90;;;;;;5099229;28;20230;-62
2023/12/01 11:13:43;;;;;;;9.63;7.80;;;-0.10;99.90;;;;;;5094993;28;20296;-63
2023/12/01 11:16:13;;;;;;;9.07;6.87;;;-0.20;99.90;;;;;;5095533;28;20282;-64
2023/12/01 11:18:43;;;;;;;8.30;6.97;;;-0.10;99.90;;;;;;5088771;28;20207;-64
2023/12/01 11:21:10;;;;;;;10.57;7.57;;;0.00;99.90;;;;;;5107560;28;20256;-63
2023/12/01 11:23:37;;;;;;;7.93;7.13;;;-0.10;99.90;;;;;;5105001;28;20293;-63
2023/12/01 11:26:07;;;;;;;9.80;6.83;;;-0.10;99.90;;;;;;5089947;28;20211;-63
2023/12/01 11:28:42;;;;;;;9.93;7.90;;;0.20;99.90;;;;;;5109005;28;20740;-64
2023/12/01 11:31:16;;;;;;;9.17;7.43;;;0.40;99.90;;;;;;5109177;28;20210;-64
2023/12/01 11:33:45;;;;;;;9.37;7.97;;;0.50;99.90;;;;;;5108879;28;20190;-64
2023/12/01 11:36:30;;;;;;;9.83;7.80;;;0.40;99.90;;;;;;5070996;28;20310;-64
2023/12/01 11:39:17;;;;;;;8.60;7.70;;;0.40;99.90;;;;;;5067847;28;20580;-64
2023/12/01 11:41:46;;;;;;;9.37;7.70;;;0.50;99.90;;;;;;5067790;28;20215;-64
2023/12/01 11:44:16;;;;;;;9.70;7.70;;;0.40;99.90;;;;;;5068691;28;20207;-64
2023/12/01 11:46:44;;;;;;;10.33;8.30;;;0.30;99.90;;;;;;5074429;28;20236;-64
2023/12/01 11:49:14;;;;;;;11.20;8.17;;;0.30;99.90;;;;;;5108010;28;20672;-63
2023/12/01 11:51:43;;;;;;;11.00;8.07;;;0.30;99.90;;;;;;5092880;28;20223;-64
2023/12/01 11:54:12;;;;;;;11.77;8.70;;;0.50;99.90;;;;;;5087297;28;20290;-64
2023/12/01 11:56:40;;;;;;;11.30;8.00;;;0.50;99.90;;;;;;5087559;28;20207;-64
2023/12/01 11:59:08;;;;;;;12.53;9.43;;;0.30;99.90;;;;;;5087137;28;20203;-64
2023/12/01 12:01:37;;;;;;;12.27;8.90;;;0.10;99.90;;;;;;5090343;28;20770;-64
2023/12/01 12:04:05;;;;;;;12.27;9.00;;;-0.10;99.90;;;;;;5108374;28;20210;-64
2023/12/01 12:06:33;;;;;;;11.13;8.17;;;-0.30;99.90;;;;;;5108144;28;20210;-64
2023/12/01 12:09:06;;;;;;;13.00;8.53;;;-0.40;99.90;;;;;;5091689;28;20249;-64
2023/12/01 12:11:35;;;;;;;11.93;9.10;;;-0.50;99.90;;;;;;5087651;28;20586;-64
2023/12/01 12:14:03;;;;;;;13.10;8.67;;;-0.60;99.90;;;;;;5087964;28;20260;-64
2023/12/01 12:16:30;;;;;;;10.63;8.37;;;-0.70;99.90;;;;;;5089604;28;20234;-64
2023/12/01 12:18:58;;;;;;;11.40;8.50;;;-0.70;99.90;;;;;;5073488;28;20299;-64
2023/12/01 12:21:27;;;;;;;10.37;8.17;;;-0.60;99.90;;;;;;5067269;28;20207;-64
2023/12/01 12:23:54;;;;;;;11.27;8.30;;;-0.60;99.90;;;;;;5083760;28;20237;-64
2023/12/01 12:26:24;;;;;;;12.30;8.33;;;-0.70;99.90;;;;;;5087403;28;20302;-64
2023/12/01 12:28:53;;;;;;;12.53;8.50;;;-1.00;99.90;;;;;;5087048;28;20857;-64
2023/12/01 12:31:23;;;;;;;12.47;9.10;;;-1.10;99.90;;;;;;5087136;28;20317;-64
2023/12/01 12:33:50;;;;;;;11.03;8.30;;;-1.00;99.90;;;;;;5075255;28;20219;-64
2023/12/01 12:36:17;;;;;;;11.17;8.87;;;-1.00;99.90;;;;;;5066902;28;20269;-64
2023/12/01 12:38:47;;;;;;;11.40;8.80;;;-1.20;99.90;;;;;;5079830;28;20233;-64
2023/12/01 12:41:25;;;;;;;12.37;8.37;;;-1.20;99.90;;;;;;5085678;28;20657;-64
2023/12/01 12:43:56;;;;;;;12.60;8.60;;;-1.40;99.90;;;;;;5107072;28;20237;-64
2023/12/01 12:46:23;;;;;;;11.53;8.63;;;-1.40;99.90;;;;;;5085289;28;20248;-64
2023/12/01 12:48:51;;;;;;;10.73;7.87;;;-1.40;99.90;;;;;;5094153;28;20307;-65